Time,TemperatureF,DewpointF,PressureIn,WindDirection,WindDirectionDegrees,WindSpeedMPH,WindSpeedGustMPH,Humidity,HourlyPrecipIn,Conditions,Clouds,dailyrainin,SoftwareType,DateUTC
2013-06-29 00:06:00,66.9,63.0,29.70,WSW,254,0.0,0.0,87,0.00,,,0.00,weatherlink.com 1.10,2013-06-29 05:06:00,
2013-06-29 00:20:00,66.4,63.0,29.69,WSW,254,0.0,0.0,88,0.00,,,0.00,weatherlink.com 1.10,2013-06-29 05:20:00,
2013-06-29 00:35:00,65.9,63.0,29.69,WSW,254,0.0,0.0,90,0.00,,,0.00,weatherlink.com 1.10,2013-06-29 05:35:00,
2013-06-29 00:50:00,65.4,63.0,29.69,WSW,254,0.0,0.0,90,0.00,,,0.00,weatherlink.com 1.10,2013-06-29 05:50:00,
2013-06-29 01:05:00,65.0,62.0,29.69,WSW,254,0.0,0.0,90,0.00,,,0.00,weatherlink.com 1.10,2013-06-29 06:05:00,
2013-06-29 01:20:00,64.6,62.0,29.69,WSW,254,0.0,0.0,90,0.00,,,0.00,weatherlink.com 1.10,2013-06-29 06:20:00,
2013-06-29 01:35:00,64.4,62.0,29.68,WSW,254,0.0,0.0,91,0.00,,,0.00,weatherlink.com 1.10,2013-06-29 06:35:00,
2013-06-29 01:58:00,64.2,62.0,29.68,WSW,254,0.0,0.0,91,0.00,,,0.00,weatherlink.com 1.10,2013-06-29 06:58:00,
2013-06-29 02:05:00,64.1,62.0,29.68,WSW,254,0.0,0.0,91,0.00,,,0.00,weatherlink.com 1.10,2013-06-29 07:05:00,
2013-06-29 02:20:00,64.0,61.0,29.67,WSW,254,0.0,1.0,91,0.00,,,0.00,weatherlink.com 1.10,2013-06-29 07:20:00,
2013-06-29 02:35:00,63.8,61.0,29.67,WSW,254,0.0,0.0,91,0.00,,,0.00,weatherlink.com 1.10,2013-06-29 07:35:00,
2013-06-29 02:50:00,63.8,61.0,29.66,WSW,254,0.0,0.0,91,0.00,,,0.00,weatherlink.com 1.10,2013-06-29 07:50:00,
2013-06-29 03:05:00,63.8,61.0,29.66,WSW,254,0.0,0.0,91,0.00,,,0.00,weatherlink.com 1.10,2013-06-29 08:05:00,
2013-06-29 03:20:00,63.8,61.0,29.66,WSW,254,0.0,0.0,91,0.00,,,0.00,weatherlink.com 1.10,2013-06-29 08:20:00,
2013-06-29 03:35:00,63.8,61.0,29.66,WSW,254,0.0,0.0,91,0.00,,,0.00,weatherlink.com 1.10,2013-06-29 08:35:00,
2013-06-29 03:51:00,63.7,61.0,29.66,WSW,254,0.0,0.0,91,0.00,,,0.00,weatherlink.com 1.10,2013-06-29 08:51:00,
2013-06-29 04:06:00,63.6,61.0,29.66,WSW,254,0.0,0.0,91,0.00,,,0.00,weatherlink.com 1.10,2013-06-29 09:06:00,
2013-06-29 04:21:00,63.6,61.0,29.66,WSW,243,0.0,1.0,91,0.00,,,0.00,weatherlink.com 1.10,2013-06-29 09:21:00,
2013-06-29 04:36:00,64.5,61.0,29.66,WSW,237,1.0,2.0,87,0.00,,,0.00,weatherlink.com 1.10,2013-06-29 09:36:00,
2013-06-29 04:51:00,65.8,61.0,29.66,SW,230,1.0,2.0,84,0.00,,,0.00,weatherlink.com 1.10,2013-06-29 09:51:00,
2013-06-29 05:06:00,66.7,61.0,29.66,SW,229,2.0,3.0,81,0.00,,,0.00,weatherlink.com 1.10,2013-06-29 10:06:00,
2013-06-29 05:21:00,67.2,61.0,29.67,SW,234,2.0,4.0,80,0.00,,,0.00,weatherlink.com 1.10,2013-06-29 10:21:00,
2013-06-29 05:36:00,67.1,61.0,29.67,WSW,242,2.0,4.0,80,0.00,,,0.00,weatherlink.com 1.10,2013-06-29 10:36:00,
2013-06-29 05:51:00,67.1,61.0,29.67,SW,232,0.0,4.0,80,0.00,,,0.00,weatherlink.com 1.10,2013-06-29 10:51:00,
2013-06-29 06:06:00,67.0,61.0,29.67,SW,217,2.0,5.0,80,0.00,,,0.00,weatherlink.com 1.10,2013-06-29 11:06:00,
2013-06-29 06:21:00,67.3,61.0,29.68,SW,232,2.0,4.0,80,0.00,,,0.00,weatherlink.com 1.10,2013-06-29 11:21:00,
2013-06-29 06:36:00,68.0,62.0,29.68,WSW,238,3.0,5.0,80,0.00,,,0.00,weatherlink.com 1.10,2013-06-29 11:36:00,
2013-06-29 06:51:00,69.3,62.0,29.67,WSW,238,3.0,5.0,78,0.00,,,0.00,weatherlink.com 1.10,2013-06-29 11:51:00,
2013-06-29 07:06:00,70.3,63.0,29.67,SW,236,3.0,4.0,77,0.00,,,0.00,weatherlink.com 1.10,2013-06-29 12:06:00,
2013-06-29 07:21:00,71.2,63.0,29.67,SW,235,3.0,7.0,75,0.00,,,0.00,weatherlink.com 1.10,2013-06-29 12:21:00,
2013-06-29 07:36:00,72.1,63.0,29.67,WSW,247,1.0,7.0,72,0.00,,,0.00,weatherlink.com 1.10,2013-06-29 12:36:00,
2013-06-29 07:51:00,72.8,63.0,29.67,SW,232,2.0,8.0,71,0.00,,,0.00,weatherlink.com 1.10,2013-06-29 12:51:00,
2013-06-29 08:06:00,73.4,63.0,29.67,WSW,237,1.0,7.0,71,0.00,,,0.00,weatherlink.com 1.10,2013-06-29 13:06:00,
2013-06-29 08:21:00,74.4,64.0,29.68,West,261,0.0,6.0,69,0.00,,,0.00,weatherlink.com 1.10,2013-06-29 13:21:00,
2013-06-29 08:36:00,75.2,63.0,29.67,WNW,286,3.0,5.0,66,0.00,,,0.00,weatherlink.com 1.10,2013-06-29 13:36:00,
2013-06-29 08:51:00,75.7,64.0,29.67,SW,236,0.0,7.0,66,0.00,,,0.00,weatherlink.com 1.10,2013-06-29 13:51:00,
2013-06-29 09:06:00,76.4,63.0,29.67,SSW,209,3.0,12.0,64,0.00,,,0.00,weatherlink.com 1.10,2013-06-29 14:06:00,
2013-06-29 09:21:00,77.1,64.0,29.67,SSW,211,5.0,5.0,64,0.00,,,0.00,weatherlink.com 1.10,2013-06-29 14:21:00,
2013-06-29 09:36:00,77.6,63.0,29.67,NW,307,1.0,7.0,61,0.00,,,0.00,weatherlink.com 1.10,2013-06-29 14:36:00,
2013-06-29 09:51:00,78.3,64.0,29.67,SW,222,2.0,8.0,61,0.00,,,0.00,weatherlink.com 1.10,2013-06-29 14:51:00,
2013-06-29 10:06:00,79.1,64.0,29.66,NNW,347,2.0,19.0,61,0.00,,,0.00,weatherlink.com 1.10,2013-06-29 15:06:00,
2013-06-29 10:21:00,79.8,62.0,29.66,WSW,245,3.0,12.0,55,0.00,,,0.00,weatherlink.com 1.10,2013-06-29 15:21:00,
2013-06-29 10:36:00,80.2,62.0,29.66,SSW,195,3.0,7.0,54,0.00,,,0.00,weatherlink.com 1.10,2013-06-29 15:36:00,
2013-06-29 10:52:00,80.6,63.0,29.66,WSW,245,3.0,10.0,56,0.00,,,0.00,weatherlink.com 1.10,2013-06-29 15:52:00,
2013-06-29 11:07:00,80.9,62.0,29.66,WNW,286,4.0,12.0,53,0.00,,,0.00,weatherlink.com 1.10,2013-06-29 16:07:00,
2013-06-29 11:22:00,80.8,62.0,29.66,SW,223,4.0,13.0,53,0.00,,,0.00,weatherlink.com 1.10,2013-06-29 16:22:00,
2013-06-29 11:37:00,81.6,62.0,29.66,NNW,332,2.0,11.0,52,0.00,,,0.00,weatherlink.com 1.10,2013-06-29 16:37:00,
2013-06-29 11:52:00,82.1,62.0,29.66,NW,313,2.0,9.0,51,0.00,,,0.00,weatherlink.com 1.10,2013-06-29 16:52:00,
2013-06-29 12:07:00,82.0,63.0,29.66,West,274,0.0,8.0,52,0.00,,,0.00,weatherlink.com 1.10,2013-06-29 17:07:00,
2013-06-29 12:22:00,82.2,62.0,29.66,NNW,329,1.0,12.0,51,0.00,,,0.00,weatherlink.com 1.10,2013-06-29 17:22:00,
2013-06-29 12:37:00,82.5,62.0,29.66,SSW,211,4.0,10.0,50,0.00,,,0.00,weatherlink.com 1.10,2013-06-29 17:37:00,
2013-06-29 12:52:00,82.7,63.0,29.66,SSW,199,2.0,9.0,52,0.00,,,0.00,weatherlink.com 1.10,2013-06-29 17:52:00,
2013-06-29 13:07:00,82.8,62.0,29.66,SW,232,2.0,9.0,49,0.00,,,0.00,weatherlink.com 1.10,2013-06-29 18:07:00,
2013-06-29 13:22:00,82.7,63.0,29.65,SW,232,0.0,11.0,51,0.00,,,0.00,weatherlink.com 1.10,2013-06-29 18:22:00,
2013-06-29 13:37:00,83.5,65.0,29.65,NW,304,1.0,9.0,53,0.00,,,0.00,weatherlink.com 1.10,2013-06-29 18:37:00,
2013-06-29 13:52:00,82.6,64.0,29.65,SW,220,2.0,9.0,54,0.00,,,0.00,weatherlink.com 1.10,2013-06-29 18:52:00,
2013-06-29 14:07:00,84.5,63.0,29.65,WSW,237,5.0,9.0,49,0.00,,,0.00,weatherlink.com 1.10,2013-06-29 19:07:00,
2013-06-29 14:22:00,84.8,64.0,29.64,SW,222,1.0,8.0,50,0.00,,,0.00,weatherlink.com 1.10,2013-06-29 19:22:00,
2013-06-29 14:37:00,86.3,64.0,29.64,SSW,198,6.0,10.0,48,0.00,,,0.00,weatherlink.com 1.10,2013-06-29 19:37:00,
2013-06-29 14:52:00,87.2,63.0,29.64,SW,224,9.0,11.0,45,0.00,,,0.00,weatherlink.com 1.10,2013-06-29 19:52:00,
2013-06-29 15:07:00,87.5,62.0,29.64,SSW,203,2.0,10.0,42,0.00,,,0.00,weatherlink.com 1.10,2013-06-29 20:07:00,
2013-06-29 15:22:00,87.4,63.0,29.63,West,276,3.0,11.0,44,0.00,,,0.00,weatherlink.com 1.10,2013-06-29 20:22:00,
2013-06-29 15:37:00,87.8,63.0,29.63,SW,217,2.0,10.0,43,0.00,,,0.00,weatherlink.com 1.10,2013-06-29 20:37:00,
2013-06-29 15:52:00,88.2,64.0,29.63,SW,235,4.0,10.0,45,0.00,,,0.00,weatherlink.com 1.10,2013-06-29 20:52:00,
2013-06-29 16:07:00,87.1,64.0,29.62,SW,236,3.0,7.0,47,0.00,,,0.00,weatherlink.com 1.10,2013-06-29 21:07:00,
2013-06-29 16:23:00,87.8,63.0,29.61,West,278,1.0,11.0,43,0.00,,,0.00,weatherlink.com 1.10,2013-06-29 21:23:00,
2013-06-29 16:37:00,87.5,63.0,29.61,SSW,202,2.0,13.0,44,0.00,,,0.00,weatherlink.com 1.10,2013-06-29 21:37:00,
2013-06-29 16:52:00,87.2,61.0,29.61,SW,217,5.0,11.0,42,0.00,,,0.00,weatherlink.com 1.10,2013-06-29 21:52:00,
2013-06-29 17:07:00,87.9,62.0,29.61,SW,232,3.0,7.0,42,0.00,,,0.00,weatherlink.com 1.10,2013-06-29 22:07:00,
2013-06-29 17:22:00,88.0,61.0,29.61,SW,218,5.0,9.0,41,0.00,,,0.00,weatherlink.com 1.10,2013-06-29 22:22:00,
2013-06-29 17:37:00,85.6,61.0,29.61,WSW,238,2.0,4.0,44,0.02,,,0.02,weatherlink.com 1.10,2013-06-29 22:37:00,
2013-06-29 17:52:00,83.8,61.0,29.61,SSW,211,3.0,4.0,47,0.02,,,0.02,weatherlink.com 1.10,2013-06-29 22:52:00,
2013-06-29 18:07:00,82.8,62.0,29.61,WSW,244,3.0,4.0,49,0.02,,,0.02,weatherlink.com 1.10,2013-06-29 23:07:00,
2013-06-29 18:22:00,82.5,62.0,29.61,SW,224,1.0,5.0,50,0.02,,,0.02,weatherlink.com 1.10,2013-06-29 23:22:00,
2013-06-29 18:37:00,82.5,63.0,29.62,SSW,195,0.0,3.0,52,0.00,,,0.02,weatherlink.com 1.10,2013-06-29 23:37:00,
2013-06-29 18:52:00,81.5,61.0,29.62,WNW,294,0.0,7.0,50,0.00,,,0.02,weatherlink.com 1.10,2013-06-29 23:52:00,
2013-06-29 19:07:00,80.7,60.0,29.63,West,271,1.0,7.0,49,0.00,,,0.02,weatherlink.com 1.10,2013-06-30 00:07:00,
2013-06-29 19:22:00,80.0,61.0,29.64,NW,305,0.0,4.0,53,0.00,,,0.02,weatherlink.com 1.10,2013-06-30 00:22:00,
2013-06-29 19:37:00,78.4,60.0,29.66,West,268,6.0,19.0,53,0.00,,,0.02,weatherlink.com 1.10,2013-06-30 00:37:00,
2013-06-29 19:52:00,74.4,60.0,29.66,West,278,3.0,16.0,62,0.00,,,0.02,weatherlink.com 1.10,2013-06-30 00:52:00,
2013-06-29 20:07:00,72.0,61.0,29.66,WSW,252,5.0,12.0,68,0.00,,,0.02,weatherlink.com 1.10,2013-06-30 01:07:00,
2013-06-29 20:22:00,71.2,61.0,29.67,NNW,343,1.0,7.0,70,0.00,,,0.02,weatherlink.com 1.10,2013-06-30 01:22:00,
2013-06-29 20:37:00,70.7,61.0,29.67,WNW,302,0.0,3.0,72,0.00,,,0.02,weatherlink.com 1.10,2013-06-30 01:37:00,
2013-06-29 20:52:00,70.2,62.0,29.67,WNW,296,0.0,1.0,75,0.00,,,0.02,weatherlink.com 1.10,2013-06-30 01:52:00,
2013-06-29 21:09:00,69.3,62.0,29.67,WNW,296,0.0,0.0,78,0.00,,,0.02,weatherlink.com 1.10,2013-06-30 02:09:00,
2013-06-29 21:24:00,68.4,62.0,29.67,WNW,296,0.0,0.0,80,0.00,,,0.02,weatherlink.com 1.10,2013-06-30 02:24:00,
2013-06-29 21:39:00,67.4,62.0,29.68,WNW,296,0.0,0.0,83,0.00,,,0.02,weatherlink.com 1.10,2013-06-30 02:39:00,
2013-06-29 21:54:00,66.6,62.0,29.69,WNW,296,0.0,0.0,84,0.00,,,0.02,weatherlink.com 1.10,2013-06-30 02:54:00,
2013-06-29 22:09:00,65.8,62.0,29.69,WNW,295,1.0,1.0,86,0.00,,,0.02,weatherlink.com 1.10,2013-06-30 03:09:00,
2013-06-29 22:24:00,65.3,61.0,29.69,WSW,245,0.0,2.0,86,0.00,,,0.02,weatherlink.com 1.10,2013-06-30 03:24:00,
2013-06-29 22:39:00,65.0,61.0,29.69,WSW,245,0.0,0.0,88,0.00,,,0.02,weatherlink.com 1.10,2013-06-30 03:39:00,
2013-06-29 22:54:00,64.5,61.0,29.69,WSW,245,0.0,0.0,88,0.00,,,0.02,weatherlink.com 1.10,2013-06-30 03:54:00,
2013-06-29 23:09:00,64.0,61.0,29.69,WSW,245,0.0,0.0,89,0.00,,,0.02,weatherlink.com 1.10,2013-06-30 04:09:00,
2013-06-29 23:24:00,63.7,61.0,29.69,WSW,245,0.0,0.0,90,0.00,,,0.02,weatherlink.com 1.10,2013-06-30 04:24:00,
2013-06-29 23:39:00,63.6,61.0,29.69,WSW,245,0.0,0.0,91,0.00,,,0.02,weatherlink.com 1.10,2013-06-30 04:39:00,
2013-06-29 23:54:00,63.5,61.0,29.69,WSW,245,0.0,0.0,91,0.00,,,0.02,weatherlink.com 1.10,2013-06-30 04:54:00,